createdAt,value
2017-10-22T00:01:53.862Z,1.00
2017-10-22T00:04:23.005Z,1.10
2017-10-22T00:06:51.380Z,1.60
2017-10-22T00:09:19.776Z,1.70
2017-10-22T00:11:48.194Z,0.70
2017-10-22T00:14:16.569Z,1.23
2017-10-22T00:16:45.048Z,1.00
2017-10-22T00:19:13.429Z,1.63
2017-10-22T00:21:41.796Z,1.00
2017-10-22T00:24:10.192Z,1.30
2017-10-22T00:26:39.706Z,1.57
2017-10-22T00:29:08.844Z,1.47
2017-10-22T00:31:39.080Z,0.80
2017-10-22T00:34:07.105Z,0.97
2017-10-22T00:36:36.609Z,1.80
2017-10-22T00:39:05.809Z,1.07
2017-10-22T00:41:34.175Z,1.40
2017-10-22T00:44:03.553Z,1.23
2017-10-22T00:46:32.836Z,1.03
2017-10-22T00:49:01.213Z,1.33
2017-10-22T00:51:30.584Z,0.97
2017-10-22T00:53:59.968Z,1.13
2017-10-22T00:56:29.482Z,1.30
2017-10-22T00:58:58.851Z,1.17
2017-10-22T01:01:28.005Z,1.30
2017-10-22T01:03:56.366Z,1.00
2017-10-22T01:06:24.731Z,0.83
2017-10-22T01:08:53.224Z,1.23
2017-10-22T01:11:21.251Z,1.20
2017-10-22T01:13:50.040Z,1.00
2017-10-22T01:16:19.229Z,1.27
2017-10-22T01:18:47.601Z,0.93
2017-10-22T01:21:15.610Z,2.17
2017-10-22T01:23:43.740Z,1.13
2017-10-22T01:26:11.766Z,1.33
2017-10-22T01:28:40.797Z,1.70
2017-10-22T01:31:09.832Z,0.97
2017-10-22T01:33:39.212Z,1.40
2017-10-22T01:36:08.229Z,1.10
2017-10-22T01:38:37.272Z,1.10
2017-10-22T01:41:06.644Z,1.47
2017-10-22T01:43:34.327Z,1.67
2017-10-22T01:46:02.377Z,2.10
2017-10-22T01:48:30.045Z,0.83
2017-10-22T01:50:58.106Z,1.70
2017-10-22T01:53:25.892Z,1.50
2017-10-22T01:55:53.712Z,1.03
2017-10-22T01:58:21.206Z,0.73
2017-10-22T02:00:49.268Z,1.70
2017-10-22T02:03:17.624Z,1.10
2017-10-22T02:05:45.988Z,0.73
2017-10-22T02:08:15.182Z,1.30
2017-10-22T02:10:43.967Z,1.60
2017-10-22T02:13:13.105Z,1.43
2017-10-22T02:15:41.925Z,1.63
2017-10-22T02:18:11.248Z,2.50
2017-10-22T02:20:40.398Z,1.20
2017-10-22T02:23:08.469Z,2.60
2017-10-22T02:25:36.496Z,1.87
2017-10-22T02:28:06.379Z,1.60
2017-10-22T02:30:34.808Z,1.73
2017-10-22T02:33:03.206Z,2.00
2017-10-22T02:35:31.402Z,2.00
2017-10-22T02:37:59.443Z,1.00
2017-10-22T02:40:27.821Z,1.23
2017-10-22T02:42:56.197Z,2.70
2017-10-22T02:45:24.598Z,1.00
2017-10-22T02:47:52.973Z,1.70
2017-10-22T02:50:20.996Z,1.80
2017-10-22T02:52:50.178Z,1.37
2017-10-22T02:55:19.683Z,2.73
2017-10-22T02:57:48.312Z,2.73
2017-10-22T03:00:16.351Z,1.77
2017-10-22T03:02:45.489Z,3.40
2017-10-22T03:05:13.953Z,0.97
2017-10-22T03:07:42.343Z,1.40
2017-10-22T03:10:10.364Z,2.00
2017-10-22T03:12:39.872Z,1.87
2017-10-22T03:15:09.120Z,2.30
2017-10-22T03:17:38.629Z,1.43
2017-10-22T03:20:07.017Z,1.47
2017-10-22T03:22:35.405Z,1.67
2017-10-22T03:25:03.772Z,1.20
2017-10-22T03:27:32.128Z,1.97
2017-10-22T03:30:00.625Z,1.90
2017-10-22T03:32:28.992Z,1.33
2017-10-22T03:34:57.369Z,1.33
2017-10-22T03:37:25.783Z,1.43
2017-10-22T03:39:54.154Z,1.30
2017-10-22T03:42:22.512Z,2.37
2017-10-22T03:44:50.925Z,1.03
2017-10-22T03:47:19.282Z,0.67
2017-10-22T03:49:47.649Z,0.70
2017-10-22T03:52:16.037Z,0.40
2017-10-22T03:54:44.401Z,1.00
2017-10-22T03:57:12.773Z,0.80
2017-10-22T03:59:41.257Z,0.70
2017-10-22T04:02:09.630Z,1.23
2017-10-22T04:04:38.000Z,0.77
2017-10-22T04:07:06.491Z,0.60
2017-10-22T04:09:34.854Z,1.20
2017-10-22T04:12:03.217Z,0.80
2017-10-22T04:14:31.602Z,0.80
2017-10-22T04:16:59.968Z,0.40
2017-10-22T04:19:28.331Z,0.50
2017-10-22T04:21:57.589Z,0.63
2017-10-22T04:24:25.964Z,0.50
2017-10-22T04:26:54.333Z,1.10
2017-10-22T04:29:22.718Z,0.90
2017-10-22T04:31:51.099Z,0.50
2017-10-22T04:34:19.466Z,1.03
2017-10-22T04:36:47.869Z,0.67
2017-10-22T04:39:16.264Z,0.30
2017-10-22T04:41:44.631Z,0.50
2017-10-22T04:44:13.014Z,0.90
2017-10-22T04:46:41.391Z,0.90
2017-10-22T04:49:09.762Z,0.70
2017-10-22T04:51:38.145Z,0.77
2017-10-22T04:54:06.522Z,0.60
2017-10-22T04:56:34.886Z,0.83
2017-10-22T04:59:03.274Z,0.43
2017-10-22T05:01:31.632Z,0.67
2017-10-22T05:03:59.808Z,0.47
2017-10-22T05:06:28.014Z,0.70
2017-10-22T05:08:57.155Z,0.80
2017-10-22T05:11:25.550Z,0.87
2017-10-22T05:13:53.970Z,0.27
2017-10-22T05:16:22.929Z,0.80
2017-10-22T05:18:51.295Z,0.53
2017-10-22T05:21:19.685Z,1.10
2017-10-22T05:23:48.048Z,0.67
2017-10-22T05:26:16.422Z,1.27
2017-10-22T05:28:45.001Z,0.70
2017-10-22T05:31:13.365Z,0.30
2017-10-22T05:33:41.738Z,0.60
2017-10-22T05:36:10.117Z,0.30
2017-10-22T05:38:38.480Z,0.77
2017-10-22T05:41:07.629Z,0.40
2017-10-22T05:43:36.830Z,0.90
2017-10-22T05:46:05.448Z,0.70
2017-10-22T05:48:34.649Z,0.90
2017-10-22T05:51:03.821Z,0.30
2017-10-22T05:53:32.196Z,0.27
2017-10-22T05:56:00.558Z,0.33
2017-10-22T05:58:28.977Z,0.30
2017-10-22T06:00:58.116Z,0.50
2017-10-22T06:03:26.482Z,0.50
2017-10-22T06:05:55.221Z,0.67
2017-10-22T06:08:23.233Z,0.43
2017-10-22T06:10:51.085Z,0.73
2017-10-22T06:13:20.052Z,0.40
2017-10-22T06:15:48.234Z,0.40
2017-10-22T06:18:16.594Z,0.30
2017-10-22T06:20:44.981Z,0.30
2017-10-22T06:23:13.352Z,0.30
2017-10-22T06:25:41.725Z,1.10
2017-10-22T06:28:10.201Z,1.10
2017-10-22T06:30:38.579Z,0.37
2017-10-22T06:33:08.092Z,0.60
2017-10-22T06:35:36.477Z,0.70
2017-10-22T06:38:04.845Z,0.30
2017-10-22T06:40:34.870Z,0.70
2017-10-22T06:43:02.915Z,0.60
2017-10-22T06:45:30.950Z,0.50
2017-10-22T06:47:58.972Z,0.30
2017-10-22T06:50:27.496Z,1.00
2017-10-22T06:52:55.518Z,0.60
2017-10-22T06:55:23.958Z,0.53
2017-10-22T06:57:51.684Z,2.03
2017-10-22T07:00:20.127Z,0.40
2017-10-22T07:02:47.811Z,0.40
2017-10-22T07:05:16.213Z,0.80
2017-10-22T07:07:44.791Z,1.40
2017-10-22T07:10:13.592Z,0.70
2017-10-22T07:12:42.413Z,0.50
2017-10-22T07:15:10.440Z,1.70
2017-10-22T07:17:39.602Z,1.07
2017-10-22T07:20:08.006Z,0.30
2017-10-22T07:22:36.368Z,0.43
2017-10-22T07:25:04.745Z,0.47
2017-10-22T07:27:33.142Z,0.63
2017-10-22T07:30:01.505Z,0.70
2017-10-22T07:32:29.869Z,0.83
2017-10-22T07:34:57.925Z,1.20
2017-10-22T07:37:25.593Z,0.50
2017-10-22T07:39:53.964Z,0.60
2017-10-22T07:42:22.562Z,0.90
2017-10-22T07:44:50.924Z,0.40
2017-10-22T07:47:18.945Z,0.70
2017-10-22T07:49:48.089Z,0.70
2017-10-22T07:52:16.113Z,0.73
2017-10-22T07:54:45.307Z,0.63
2017-10-22T07:57:14.440Z,1.10
2017-10-22T07:59:42.838Z,0.93
2017-10-22T08:02:11.217Z,0.43
2017-10-22T08:04:39.593Z,1.03
2017-10-22T08:07:08.077Z,0.40
2017-10-22T08:09:37.594Z,0.60
2017-10-22T08:12:05.991Z,0.30
2017-10-22T08:14:34.970Z,1.07
2017-10-22T08:17:03.367Z,0.40
2017-10-22T08:19:31.848Z,0.50
2017-10-22T08:22:00.215Z,0.30
2017-10-22T08:24:28.588Z,0.40
2017-10-22T08:26:56.974Z,0.27
2017-10-22T08:29:25.330Z,0.90
2017-10-22T08:31:53.720Z,0.40
2017-10-22T08:34:21.901Z,0.33
2017-10-22T08:36:50.263Z,0.37
2017-10-22T08:39:19.423Z,0.80
2017-10-22T08:41:47.793Z,0.43
2017-10-22T08:44:15.490Z,0.40
2017-10-22T08:46:43.164Z,0.50
2017-10-22T08:49:11.511Z,0.50
2017-10-22T08:51:39.455Z,0.33
2017-10-22T08:54:07.487Z,0.47
2017-10-22T08:56:35.871Z,0.20
2017-10-22T08:59:03.541Z,0.40
2017-10-22T09:01:31.977Z,0.50
2017-10-22T09:04:00.381Z,0.37
2017-10-22T09:06:28.396Z,0.40
2017-10-22T09:08:56.549Z,0.47
2017-10-22T09:11:25.603Z,0.40
2017-10-22T09:13:54.729Z,0.20
2017-10-22T09:16:22.760Z,0.20
2017-10-22T09:18:51.133Z,0.40
2017-10-22T09:21:19.975Z,0.40
2017-10-22T09:23:48.752Z,0.43
2017-10-22T09:26:17.917Z,0.40
2017-10-22T09:28:45.604Z,0.70
2017-10-22T09:31:13.964Z,0.40
2017-10-22T09:33:42.052Z,0.50
2017-10-22T09:36:10.334Z,0.30
2017-10-22T09:38:39.648Z,0.43
2017-10-22T09:41:08.806Z,0.30
2017-10-22T09:43:38.212Z,0.33
2017-10-22T09:46:06.285Z,0.37
2017-10-22T09:48:34.652Z,0.30
2017-10-22T09:51:03.020Z,0.27
2017-10-22T09:53:31.414Z,0.70
2017-10-22T09:56:00.207Z,0.30
2017-10-22T09:58:28.597Z,1.00
2017-10-22T10:00:56.310Z,0.43
2017-10-22T10:03:24.674Z,0.40
2017-10-22T10:05:52.713Z,0.20
2017-10-22T10:08:20.803Z,0.30
2017-10-22T10:10:49.970Z,0.40
2017-10-22T10:13:18.921Z,0.37
2017-10-22T10:15:47.282Z,0.30
2017-10-22T10:18:15.657Z,0.30
2017-10-22T10:20:44.080Z,0.37
2017-10-22T10:23:12.498Z,0.47
2017-10-22T10:25:40.939Z,1.27
2017-10-22T10:28:08.627Z,0.83
2017-10-22T10:30:37.007Z,0.67
2017-10-22T10:33:05.035Z,0.60
2017-10-22T10:35:33.104Z,0.37
2017-10-22T10:38:01.112Z,0.70
2017-10-22T10:40:29.613Z,0.53
2017-10-22T10:42:58.439Z,0.70
2017-10-22T10:45:26.449Z,1.33
2017-10-22T10:47:54.956Z,0.80
2017-10-22T10:50:23.401Z,1.03
2017-10-22T10:52:51.501Z,0.93
2017-10-22T10:55:19.886Z,0.90
2017-10-22T10:57:48.684Z,0.50
2017-10-22T11:00:17.153Z,0.90
2017-10-22T11:02:46.733Z,0.87
2017-10-22T11:05:14.763Z,1.27
2017-10-22T11:07:43.276Z,0.70
2017-10-22T11:10:11.736Z,1.40
2017-10-22T11:12:40.582Z,1.07
2017-10-22T11:15:09.777Z,1.27
2017-10-22T11:17:38.925Z,1.33
2017-10-22T11:20:08.481Z,1.20
2017-10-22T11:22:38.024Z,1.80
2017-10-22T11:25:06.453Z,0.80
2017-10-22T11:27:34.842Z,1.10
2017-10-22T11:30:03.641Z,1.17
2017-10-22T11:32:32.861Z,1.00
2017-10-22T11:35:01.244Z,1.00
2017-10-22T11:37:29.653Z,1.20
2017-10-22T11:39:58.029Z,1.47
2017-10-22T11:42:26.434Z,0.90
2017-10-22T11:44:55.589Z,1.97
2017-10-22T11:47:24.021Z,2.03
2017-10-22T11:49:53.584Z,1.70
2017-10-22T11:52:21.986Z,2.40
2017-10-22T11:54:50.392Z,2.17
2017-10-22T11:57:19.829Z,2.20
2017-10-22T11:59:48.215Z,1.17
2017-10-22T12:02:16.622Z,1.83
2017-10-22T12:04:45.030Z,1.67
2017-10-22T12:07:13.405Z,1.93
2017-10-22T12:09:42.430Z,1.70
2017-10-22T12:12:10.830Z,2.40
2017-10-22T12:14:38.582Z,2.10
2017-10-22T12:17:06.628Z,2.87
2017-10-22T12:19:34.704Z,2.90
2017-10-22T12:22:03.094Z,2.13
2017-10-22T12:24:31.487Z,1.80
2017-10-22T12:26:59.862Z,2.93
2017-10-22T12:29:28.363Z,3.13
2017-10-22T12:31:56.759Z,3.00
2017-10-22T12:34:25.150Z,1.47
2017-10-22T12:36:54.356Z,2.10
2017-10-22T12:39:22.752Z,3.10
2017-10-22T12:41:51.180Z,2.53
2017-10-22T12:44:19.562Z,1.43
2017-10-22T12:46:48.066Z,3.57
2017-10-22T12:49:16.463Z,2.00
2017-10-22T12:51:44.851Z,2.60
2017-10-22T12:54:13.237Z,3.90
2017-10-22T12:56:41.616Z,2.77
2017-10-22T12:59:10.120Z,2.47
2017-10-22T13:01:38.319Z,1.90
2017-10-22T13:04:07.474Z,1.53
2017-10-22T13:06:35.524Z,2.10
2017-10-22T13:11:36.105Z,2.10
2017-10-22T13:14:04.492Z,2.53
2017-10-22T13:16:32.896Z,2.33
2017-10-22T13:19:02.043Z,2.80
2017-10-22T13:21:30.438Z,2.57
2017-10-22T13:23:58.825Z,3.00
2017-10-22T13:26:27.209Z,2.00
2017-10-22T13:28:55.598Z,2.00
2017-10-22T13:31:23.979Z,1.90
2017-10-22T13:33:53.134Z,2.10
2017-10-22T13:36:20.846Z,2.43
2017-10-22T13:38:50.015Z,2.23
2017-10-22T13:41:18.446Z,2.60
2017-10-22T13:43:46.986Z,2.13
2017-10-22T13:46:15.371Z,3.80
2017-10-22T13:48:43.759Z,2.67
2017-10-22T13:51:12.571Z,2.60
2017-10-22T13:53:40.938Z,2.33
2017-10-22T13:56:09.332Z,2.60
2017-10-22T13:58:37.714Z,2.33
2017-10-22T14:01:06.118Z,2.57
2017-10-22T14:03:34.499Z,1.23
2017-10-22T14:06:02.887Z,1.20
2017-10-22T14:08:32.486Z,1.97
2017-10-22T14:11:00.868Z,2.20
2017-10-22T14:13:30.259Z,2.30
2017-10-22T14:15:59.665Z,2.47
2017-10-22T14:18:28.695Z,3.10
2017-10-22T14:20:57.193Z,2.33
2017-10-22T14:23:25.610Z,2.83
2017-10-22T14:25:54.075Z,2.60
2017-10-22T14:28:22.546Z,2.83
2017-10-22T14:30:51.059Z,2.40
2017-10-22T14:33:20.238Z,2.00
2017-10-22T14:35:48.632Z,2.57
2017-10-22T14:38:17.200Z,3.37
2017-10-22T14:40:45.609Z,2.47
2017-10-22T14:43:13.994Z,2.33
2017-10-22T14:45:42.989Z,3.17
2017-10-22T14:48:12.154Z,2.30
2017-10-22T14:50:40.644Z,2.73
2017-10-22T14:53:09.850Z,2.30
2017-10-22T14:55:43.939Z,2.00
2017-10-22T14:58:12.404Z,1.90
2017-10-22T15:00:41.751Z,2.30
2017-10-22T15:03:10.759Z,1.90
2017-10-22T15:05:39.904Z,2.70
2017-10-22T15:08:08.347Z,2.47
2017-10-22T15:10:37.313Z,2.70
2017-10-22T15:13:05.503Z,2.00
2017-10-22T15:15:34.870Z,2.40
2017-10-22T15:18:03.062Z,3.73
2017-10-22T15:20:31.467Z,1.17
2017-10-22T15:23:00.614Z,2.53
2017-10-22T15:25:29.006Z,1.90
2017-10-22T15:27:57.412Z,2.17
2017-10-22T15:30:26.386Z,2.10
2017-10-22T15:32:54.781Z,1.97
2017-10-22T15:35:23.931Z,2.70
2017-10-22T15:37:54.364Z,2.50
2017-10-22T15:40:23.915Z,2.20
2017-10-22T15:42:53.074Z,1.80
2017-10-22T15:45:21.462Z,2.63
2017-10-22T15:47:49.838Z,2.33
2017-10-22T15:50:18.250Z,2.20
2017-10-22T15:52:46.870Z,2.00
2017-10-22T15:55:15.270Z,3.40
2017-10-22T15:57:43.650Z,3.63
2017-10-22T16:00:12.859Z,3.70
2017-10-22T16:02:42.069Z,15.10
2017-10-22T16:05:10.446Z,3.60
2017-10-22T16:07:38.853Z,2.67
2017-10-22T16:10:07.241Z,2.57
2017-10-22T16:12:35.684Z,2.50
2017-10-22T16:15:04.514Z,2.40
2017-10-22T16:17:32.926Z,2.23
2017-10-22T16:20:02.469Z,3.07
2017-10-22T16:22:32.066Z,2.80
2017-10-22T16:25:01.211Z,1.80
2017-10-22T16:27:29.602Z,2.33
2017-10-22T16:29:58.001Z,2.80
2017-10-22T16:32:26.525Z,1.80
2017-10-22T16:34:54.918Z,2.53
2017-10-22T16:37:23.286Z,2.07
2017-10-22T16:39:51.703Z,2.53
2017-10-22T16:42:20.062Z,1.83
2017-10-22T16:44:48.546Z,2.83
2017-10-22T16:47:16.930Z,1.87
2017-10-22T16:49:45.306Z,2.60
2017-10-22T16:52:13.704Z,1.87
2017-10-22T16:54:42.141Z,2.27
2017-10-22T16:57:10.563Z,2.80
2017-10-22T16:59:38.943Z,2.40
2017-10-22T17:02:07.445Z,4.00
2017-10-22T17:04:36.607Z,2.50
2017-10-22T17:07:05.022Z,2.63
2017-10-22T17:09:34.169Z,2.27
2017-10-22T17:12:02.547Z,1.93
2017-10-22T17:14:30.943Z,1.57
2017-10-22T17:16:59.318Z,2.00
2017-10-22T17:19:27.816Z,2.40
2017-10-22T17:21:56.199Z,2.93
2017-10-22T17:24:24.575Z,2.30
2017-10-22T17:26:53.015Z,2.30
2017-10-22T17:29:21.412Z,2.33
2017-10-22T17:31:49.828Z,2.83
2017-10-22T17:34:18.986Z,1.97
2017-10-22T17:36:47.460Z,1.80
2017-10-22T17:39:16.266Z,2.97
2017-10-22T17:41:44.749Z,1.80
2017-10-22T17:44:13.226Z,3.10
2017-10-22T17:46:41.615Z,2.37
2017-10-22T17:49:10.050Z,1.73
2017-10-22T17:51:38.484Z,1.57
2017-10-22T17:54:06.974Z,1.80
2017-10-22T17:56:36.152Z,1.03
2017-10-22T17:59:04.525Z,1.60
2017-10-22T18:01:32.925Z,2.47
2017-10-22T18:04:01.331Z,2.20
2017-10-22T18:06:29.735Z,1.77
2017-10-22T18:08:58.102Z,2.70
2017-10-22T18:11:26.518Z,2.67
2017-10-22T18:13:54.901Z,1.47
2017-10-22T18:16:23.307Z,2.57
2017-10-22T18:18:52.462Z,2.47
2017-10-22T18:21:22.132Z,2.50
2017-10-22T18:23:50.541Z,2.50
2017-10-22T18:26:18.925Z,2.90
2017-10-22T18:28:47.438Z,1.77
2017-10-22T18:31:16.738Z,2.53
2017-10-22T18:33:45.892Z,3.00
2017-10-22T18:36:14.103Z,2.47
2017-10-22T18:38:42.327Z,1.73
2017-10-22T18:41:10.758Z,2.00
2017-10-22T18:43:38.954Z,2.23
2017-10-22T18:46:08.094Z,1.87
2017-10-22T18:48:36.500Z,4.47
2017-10-22T18:51:05.651Z,1.60
2017-10-22T18:53:34.060Z,2.90
2017-10-22T18:56:02.451Z,2.30
2017-10-22T18:58:30.834Z,3.53
2017-10-22T19:00:59.242Z,2.50
2017-10-22T19:03:27.618Z,2.47
2017-10-22T19:05:56.048Z,2.60
2017-10-22T19:08:24.071Z,1.93
2017-10-22T19:10:52.446Z,3.90
2017-10-22T19:13:20.870Z,1.80
2017-10-22T19:15:49.247Z,2.60
2017-10-22T19:18:17.748Z,2.70
2017-10-22T19:20:46.140Z,2.20
2017-10-22T19:23:14.762Z,2.50
2017-10-22T19:25:43.151Z,2.10
2017-10-22T19:28:11.561Z,2.50
2017-10-22T19:30:39.986Z,2.27
2017-10-22T19:33:08.392Z,3.13
2017-10-22T19:35:36.636Z,1.93
2017-10-22T19:38:08.060Z,2.37
2017-10-22T19:40:37.234Z,2.90
2017-10-22T19:43:05.797Z,2.30
2017-10-22T19:45:34.187Z,1.90
2017-10-22T19:48:02.591Z,2.70
2017-10-22T19:50:31.006Z,2.90
2017-10-22T19:52:59.392Z,2.23
2017-10-22T19:55:27.801Z,2.83
2017-10-22T19:57:56.212Z,2.33
2017-10-22T20:00:25.379Z,2.07
2017-10-22T20:02:53.765Z,1.70
2017-10-22T20:05:22.170Z,1.90
2017-10-22T20:07:51.363Z,2.13
2017-10-22T20:10:20.525Z,3.60
2017-10-22T20:12:49.193Z,1.83
2017-10-22T20:15:17.592Z,1.87
2017-10-22T20:17:45.987Z,2.63
2017-10-22T20:20:14.525Z,2.10
2017-10-22T20:22:43.000Z,2.30
2017-10-22T20:25:11.409Z,1.27
2017-10-22T20:27:39.799Z,1.70
2017-10-22T20:30:08.178Z,2.40
2017-10-22T20:32:36.696Z,1.70
2017-10-22T20:35:05.500Z,1.60
2017-10-22T20:37:34.517Z,2.63
2017-10-22T20:40:02.914Z,2.23
2017-10-22T20:42:31.052Z,1.17
2017-10-22T20:44:59.443Z,1.40
2017-10-22T20:47:27.822Z,2.07
2017-10-22T20:49:56.213Z,3.07
2017-10-22T20:52:24.614Z,2.57
2017-10-22T20:54:52.998Z,2.20
2017-10-22T20:57:21.393Z,2.53
2017-10-22T20:59:50.535Z,1.77
2017-10-22T21:02:18.966Z,2.03
2017-10-22T21:04:48.125Z,2.43
2017-10-22T21:07:16.601Z,1.67
2017-10-22T21:09:44.928Z,2.50
2017-10-22T21:12:14.080Z,2.43
2017-10-22T21:14:42.462Z,2.23
2017-10-22T21:17:11.607Z,2.23
2017-10-22T21:19:40.001Z,3.90
2017-10-22T21:22:08.303Z,1.90
2017-10-22T21:24:36.932Z,2.20
2017-10-22T21:27:06.073Z,2.40
2017-10-22T21:29:34.472Z,3.60
2017-10-22T21:32:02.854Z,1.90
2017-10-22T21:34:31.086Z,2.40
2017-10-22T21:36:59.266Z,1.90
2017-10-22T21:39:27.644Z,1.90
2017-10-22T21:41:56.022Z,2.33
2017-10-22T21:44:24.398Z,2.50
2017-10-22T21:46:52.808Z,1.93
2017-10-22T21:49:22.891Z,2.20
2017-10-22T21:51:51.078Z,2.10
2017-10-22T21:54:19.485Z,1.60
2017-10-22T21:56:47.860Z,2.13
2017-10-22T21:59:16.264Z,2.50
2017-10-22T22:01:45.426Z,2.27
2017-10-22T22:04:13.843Z,1.87
2017-10-22T22:06:42.986Z,1.90
2017-10-22T22:09:11.174Z,1.87
2017-10-22T22:11:39.661Z,2.73
2017-10-22T22:14:08.041Z,1.70
2017-10-22T22:16:36.494Z,2.07
2017-10-22T22:19:04.875Z,2.63
2017-10-22T22:21:33.247Z,2.13
2017-10-22T22:24:01.634Z,3.77
2017-10-22T22:26:30.018Z,2.60
2017-10-22T22:28:58.391Z,1.23
2017-10-22T22:31:26.778Z,2.13
2017-10-22T22:33:55.919Z,1.97
2017-10-22T22:36:25.090Z,2.13
2017-10-22T22:38:53.476Z,2.17
2017-10-22T22:41:21.861Z,1.37
2017-10-22T22:43:50.242Z,2.03
2017-10-22T22:46:19.394Z,2.60
2017-10-22T22:48:47.786Z,2.10
2017-10-22T22:51:16.167Z,1.57
2017-10-22T22:53:44.546Z,2.50
2017-10-22T22:56:12.938Z,2.73
2017-10-22T22:58:41.308Z,1.97
2017-10-22T23:01:09.791Z,1.80
2017-10-22T23:03:38.192Z,2.20
2017-10-22T23:06:07.354Z,2.67
2017-10-22T23:08:35.736Z,2.30
2017-10-22T23:11:04.110Z,1.90
2017-10-22T23:13:32.497Z,2.47
2017-10-22T23:16:00.936Z,1.50
2017-10-22T23:18:29.386Z,3.20
2017-10-22T23:20:58.539Z,2.60
2017-10-22T23:23:26.923Z,1.70
2017-10-22T23:25:55.345Z,2.93
2017-10-22T23:28:24.480Z,2.53
2017-10-22T23:30:52.861Z,1.73
2017-10-22T23:33:21.263Z,1.97
2017-10-22T23:35:49.722Z,2.60
2017-10-22T23:38:18.239Z,3.00
2017-10-22T23:40:47.394Z,1.70
2017-10-22T23:43:15.774Z,1.97
2017-10-22T23:45:44.164Z,1.90
2017-10-22T23:48:12.536Z,2.50
2017-10-22T23:50:41.022Z,1.87
2017-10-22T23:53:09.394Z,1.40
2017-10-22T23:55:37.810Z,1.70
2017-10-22T23:58:06.191Z,1.77
